createdAt,value
2019-02-24T13:39:04.276Z,16.48
2019-02-24T13:41:35.576Z,16.58
2019-02-24T13:44:05.427Z,15.80
2019-02-24T13:46:35.372Z,15.32
2019-02-24T13:49:05.250Z,15.21
2019-02-24T13:51:35.296Z,15.51
2019-02-24T13:54:05.443Z,15.51
2019-02-24T13:56:35.433Z,16.58
2019-02-24T13:59:06.456Z,16.09
2019-02-24T14:01:36.311Z,15.28
2019-02-24T14:04:06.229Z,16.68
2019-02-24T14:06:36.145Z,17.13
2019-02-24T14:09:06.122Z,17.17
2019-02-24T14:11:37.153Z,17.21
2019-02-24T14:14:07.073Z,17.55
2019-02-24T14:16:36.927Z,17.58
2019-02-24T14:19:07.058Z,16.61
2019-02-24T14:21:37.073Z,15.72
2019-02-24T14:24:07.002Z,15.38
2019-02-24T14:26:36.867Z,15.21
2019-02-24T14:29:06.736Z,16.07
2019-02-24T14:31:36.584Z,16.48
2019-02-24T14:34:07.370Z,17.26
2019-02-24T14:36:37.624Z,17.44
2019-02-24T14:39:07.932Z,16.58
2019-02-24T14:41:39.043Z,17.42
2019-02-24T14:44:08.962Z,17.71
2019-02-24T14:46:38.813Z,17.80
2019-02-24T14:49:09.141Z,17.89
2019-02-24T14:51:38.983Z,17.98
2019-02-24T14:54:09.518Z,17.66
2019-02-24T14:56:40.561Z,17.96
2019-02-24T14:59:10.377Z,17.68
2019-02-24T15:01:41.680Z,17.47
2019-02-24T15:04:12.774Z,17.89
2019-02-24T15:06:43.095Z,17.81
2019-02-24T15:09:12.943Z,17.91
2019-02-24T15:11:43.427Z,17.94
2019-02-24T15:14:13.343Z,17.95
2019-02-24T15:16:43.354Z,17.96
2019-02-24T15:19:13.578Z,17.59
2019-02-24T15:21:43.760Z,17.73
2019-02-24T15:24:13.672Z,17.69
2019-02-24T15:26:43.601Z,17.91
2019-02-24T15:29:13.843Z,17.73
2019-02-24T15:31:44.087Z,17.79
2019-02-24T15:34:13.914Z,17.36
2019-02-24T15:36:43.781Z,17.38
2019-02-24T15:39:13.625Z,17.50
2019-02-24T15:41:43.557Z,17.46
2019-02-24T15:44:13.746Z,17.59
2019-02-24T15:46:43.839Z,17.50
2019-02-24T15:49:13.724Z,17.45
2019-02-24T15:51:43.557Z,17.21
2019-02-24T15:54:13.406Z,16.89
2019-02-24T15:56:43.255Z,16.55
2019-02-24T15:59:13.230Z,16.40
2019-02-24T16:01:43.334Z,16.16
2019-02-24T16:04:13.217Z,15.78
2019-02-24T16:06:43.169Z,15.37
2019-02-24T16:09:13.355Z,14.96
2019-02-24T16:11:43.682Z,14.94
2019-02-24T16:14:13.833Z,14.98
2019-02-24T16:16:43.977Z,14.97
2019-02-24T16:19:13.822Z,14.99
2019-02-24T16:21:43.775Z,15.09
2019-02-24T16:24:14.035Z,15.14
2019-02-24T16:26:43.944Z,15.17
2019-02-24T16:29:13.994Z,15.06
2019-02-24T16:31:44.087Z,14.98
2019-02-24T16:34:13.916Z,14.82
2019-02-24T16:36:44.092Z,14.28
2019-02-24T16:39:13.995Z,14.39
2019-02-24T16:41:43.821Z,14.49
2019-02-24T16:44:14.614Z,14.26
2019-02-24T16:46:44.573Z,13.99
2019-02-24T16:49:14.345Z,13.69
2019-02-24T16:51:44.620Z,13.19
2019-02-24T16:54:14.598Z,12.93
2019-02-24T16:56:44.757Z,12.92
2019-02-24T16:59:14.678Z,12.81
2019-02-24T17:01:44.706Z,12.68
2019-02-24T17:04:15.339Z,12.52
2019-02-24T17:06:45.955Z,12.25
2019-02-24T17:09:15.779Z,11.96
2019-02-24T17:11:45.875Z,11.95
2019-02-24T17:14:15.712Z,11.97
2019-02-24T17:16:45.575Z,12.01
2019-02-24T17:19:15.442Z,11.61
2019-02-24T17:21:45.426Z,11.62
2019-02-24T17:24:15.373Z,11.61
2019-02-24T17:26:45.603Z,11.37
2019-02-24T17:29:15.430Z,11.04
2019-02-24T17:31:46.505Z,11.49
2019-02-24T17:34:16.768Z,11.50
2019-02-24T17:36:47.647Z,11.33
2019-02-24T17:39:17.541Z,10.92
2019-02-24T17:41:48.251Z,11.04
2019-02-24T17:44:18.214Z,10.87
2019-02-24T17:46:48.121Z,11.04
2019-02-24T17:49:18.101Z,10.89
2019-02-24T17:51:49.556Z,10.74
2019-02-24T17:54:19.764Z,10.73
2019-02-24T17:56:50.683Z,10.52
2019-02-24T17:59:21.096Z,10.52
2019-02-24T18:01:51.442Z,10.34
2019-02-24T18:04:21.897Z,10.20
2019-02-24T18:06:51.737Z,10.34
2019-02-24T18:09:21.589Z,10.32
2019-02-24T18:11:51.450Z,10.24
2019-02-24T18:14:21.458Z,10.11
2019-02-24T18:16:51.672Z,9.99
2019-02-24T18:19:21.524Z,10.00
2019-02-24T18:21:51.542Z,9.93
2019-02-24T18:24:21.496Z,10.08
2019-02-24T18:26:51.594Z,9.99
2019-02-24T18:29:22.710Z,9.89
2019-02-24T18:31:53.609Z,9.66
2019-02-24T18:34:23.647Z,9.90
2019-02-24T18:36:54.169Z,9.64
2019-02-24T18:39:23.996Z,9.69
2019-02-24T18:41:54.501Z,9.86
2019-02-24T18:44:24.628Z,10.07
2019-02-24T18:46:54.852Z,9.86
2019-02-24T18:49:26.216Z,9.68
2019-02-24T18:51:56.074Z,9.88
2019-02-24T18:54:34.366Z,9.91
2019-02-24T18:56:57.563Z,9.68
2019-02-24T18:59:28.355Z,9.50
2019-02-24T19:01:59.286Z,9.24
2019-02-24T19:04:29.136Z,9.26
2019-02-24T19:06:59.902Z,9.31
2019-02-24T19:09:29.743Z,9.47
2019-02-24T19:11:59.933Z,9.47
2019-02-24T19:14:30.048Z,9.36
2019-02-24T19:16:59.911Z,9.32
2019-02-24T19:19:30.105Z,9.34
2019-02-24T19:22:00.230Z,9.27
2019-02-24T19:24:30.014Z,9.27
2019-02-24T19:27:00.037Z,9.25
2019-02-24T19:29:30.326Z,9.17
2019-02-24T19:32:00.232Z,9.02
2019-02-24T19:34:30.167Z,8.94
2019-02-24T19:36:59.980Z,8.94
2019-02-24T19:39:29.864Z,8.70
2019-02-24T19:41:59.722Z,8.44
2019-02-24T19:44:30.029Z,8.91
2019-02-24T19:47:00.044Z,8.83
2019-02-24T19:49:29.874Z,8.75
2019-02-24T19:51:59.968Z,8.64
2019-02-24T19:54:30.061Z,8.62
2019-02-24T19:57:00.311Z,8.25
2019-02-24T19:59:30.731Z,7.97
2019-02-24T20:02:01.637Z,8.01
2019-02-24T20:04:31.440Z,8.25
2019-02-24T20:07:01.262Z,8.24
2019-02-24T20:09:31.374Z,8.08
2019-02-24T20:12:01.298Z,8.15
2019-02-24T20:14:31.121Z,8.08
2019-02-24T20:17:00.958Z,7.93
2019-02-24T20:19:31.199Z,7.83
2019-02-24T20:22:01.036Z,7.66
2019-02-24T20:24:33.073Z,7.75
2019-02-24T20:27:02.760Z,7.70
2019-02-24T20:29:32.522Z,7.60
2019-02-24T20:32:02.436Z,7.48
2019-02-24T20:34:32.384Z,7.32
2019-02-24T20:37:03.267Z,7.35
2019-02-24T20:39:33.168Z,7.42
2019-02-24T20:42:03.071Z,7.45
2019-02-24T20:44:33.557Z,7.52
2019-02-24T20:47:03.727Z,7.40
2019-02-24T20:49:33.852Z,7.49
2019-02-24T20:52:03.914Z,7.45
2019-02-24T20:54:34.193Z,7.49
2019-02-24T20:57:05.725Z,7.82
2019-02-24T20:59:36.960Z,8.02
2019-02-24T21:02:07.363Z,8.02
2019-02-24T21:04:37.458Z,8.01
2019-02-24T21:07:07.638Z,7.88
2019-02-24T21:09:37.867Z,7.87
2019-02-24T21:12:07.750Z,7.81
2019-02-24T21:14:37.814Z,7.45
2019-02-24T21:17:08.030Z,7.18
2019-02-24T21:19:38.143Z,6.83
2019-02-24T21:22:07.917Z,6.66
2019-02-24T21:24:38.065Z,6.55
2019-02-24T21:27:07.904Z,6.60
2019-02-24T21:29:37.829Z,6.45
2019-02-24T21:32:07.905Z,6.35
2019-02-24T21:34:37.733Z,6.25
2019-02-24T21:37:07.649Z,6.02
2019-02-24T21:39:37.549Z,5.83
2019-02-24T21:42:07.670Z,5.74
2019-02-24T21:44:37.835Z,5.92
2019-02-24T21:47:07.664Z,6.25
2019-02-24T21:49:37.584Z,6.30
2019-02-24T21:52:07.407Z,6.21
2019-02-24T21:54:37.245Z,6.05
2019-02-24T21:57:07.301Z,5.79
2019-02-24T21:59:37.359Z,6.01
2019-02-24T22:02:07.524Z,6.10
2019-02-24T22:04:38.425Z,6.05
2019-02-24T22:07:08.267Z,6.04
2019-02-24T22:09:39.174Z,5.95
2019-02-24T22:12:09.139Z,5.98
2019-02-24T22:14:38.958Z,6.09
2019-02-24T22:17:08.845Z,6.35
2019-02-24T22:19:38.622Z,6.31
2019-02-24T22:22:08.448Z,6.06
2019-02-24T22:24:38.683Z,5.87
2019-02-24T22:27:08.492Z,5.75
2019-02-24T22:29:38.324Z,5.80
2019-02-24T22:32:08.322Z,5.79
2019-02-24T22:34:38.193Z,5.72
2019-02-24T22:37:08.089Z,5.63
2019-02-24T22:39:37.902Z,5.66
2019-02-24T22:42:07.810Z,5.67
2019-02-24T22:44:37.780Z,5.65
2019-02-24T22:47:07.771Z,6.18
2019-02-24T22:49:37.582Z,6.26
2019-02-24T22:52:07.438Z,6.04
2019-02-24T22:54:37.283Z,5.95
2019-02-24T22:57:07.122Z,6.04
2019-02-24T22:59:37.385Z,5.88
2019-02-24T23:02:07.498Z,5.58
2019-02-24T23:04:37.503Z,5.36
2019-02-24T23:07:07.360Z,5.14
2019-02-24T23:09:37.545Z,5.10
2019-02-24T23:12:07.709Z,5.10
2019-02-24T23:14:37.567Z,5.00
2019-02-24T23:17:07.447Z,4.87
2019-02-24T23:19:37.275Z,4.87
2019-02-24T23:22:07.177Z,5.00
2019-02-24T23:24:36.966Z,5.16
2019-02-24T23:27:06.826Z,5.17
2019-02-24T23:29:36.957Z,5.20
2019-02-24T23:32:06.872Z,5.22
2019-02-24T23:34:36.714Z,5.27
2019-02-24T23:37:06.586Z,5.41
2019-02-24T23:39:37.584Z,5.44
2019-02-24T23:42:07.404Z,5.42
2019-02-24T23:44:37.325Z,5.35
2019-02-24T23:47:07.122Z,5.44
2019-02-24T23:49:36.903Z,5.49
2019-02-24T23:52:06.831Z,5.34
2019-02-24T23:54:37.097Z,5.34
2019-02-24T23:57:07.011Z,5.46
2019-02-24T23:59:36.899Z,5.65
